createdAt,value
2022-08-04T00:00:37.706Z,99.90
2022-08-04T00:01:46.660Z,99.90
2022-08-04T00:02:59.613Z,99.90
2022-08-04T00:04:04.769Z,99.90
2022-08-04T00:05:10.245Z,99.90
2022-08-04T00:06:31.042Z,99.90
2022-08-04T00:07:44.225Z,99.90
2022-08-04T00:08:53.120Z,99.90
2022-08-04T00:10:01.306Z,99.90
2022-08-04T00:11:05.249Z,99.90
2022-08-04T00:12:08.113Z,99.90
2022-08-04T00:13:12.310Z,99.90
2022-08-04T00:14:16.357Z,99.90
2022-08-04T00:15:21.754Z,99.90
2022-08-04T00:16:24.474Z,99.90
2022-08-04T00:17:41.526Z,99.90
2022-08-04T00:18:50.299Z,99.90
2022-08-04T00:19:57.064Z,99.90
2022-08-04T00:21:04.538Z,99.90
2022-08-04T00:22:10.800Z,99.90
2022-08-04T00:23:13.845Z,99.90
2022-08-04T00:24:17.761Z,99.90
2022-08-04T00:25:20.046Z,99.90
2022-08-04T00:26:23.453Z,99.90
2022-08-04T00:27:29.918Z,99.90
2022-08-04T00:28:33.148Z,99.90
2022-08-04T00:29:38.077Z,99.90
2022-08-04T00:30:44.175Z,99.90
2022-08-04T00:31:56.154Z,99.90
2022-08-04T00:33:01.496Z,99.90
2022-08-04T00:34:04.617Z,99.90
2022-08-04T00:35:09.781Z,99.90
2022-08-04T00:36:12.538Z,99.90
2022-08-04T00:37:16.375Z,99.90
2022-08-04T00:38:19.310Z,99.90
2022-08-04T00:39:22.479Z,99.90
2022-08-04T00:40:32.328Z,99.90
2022-08-04T00:41:56.321Z,99.90
2022-08-04T00:43:11.378Z,99.90
2022-08-04T00:44:24.276Z,99.90
2022-08-04T00:46:15.843Z,99.90
2022-08-04T00:47:19.652Z,99.90
2022-08-04T00:48:37.326Z,99.90
2022-08-04T00:50:00.912Z,99.90
2022-08-04T00:51:11.953Z,99.90
2022-08-04T00:52:32.164Z,99.90
2022-08-04T00:53:51.369Z,99.90
2022-08-04T00:55:09.125Z,99.90
2022-08-04T00:56:33.075Z,99.90
2022-08-04T00:57:50.653Z,99.90
2022-08-04T00:59:04.567Z,99.90
2022-08-04T01:00:11.968Z,99.90
2022-08-04T01:01:30.596Z,99.90
2022-08-04T01:02:37.698Z,99.90
2022-08-04T01:03:58.614Z,99.90
2022-08-04T01:05:05.955Z,99.90
2022-08-04T01:06:17.571Z,99.90
2022-08-04T01:07:32.157Z,99.90
2022-08-04T01:08:51.130Z,99.90
2022-08-04T01:10:01.450Z,99.90
2022-08-04T01:11:12.687Z,99.90
2022-08-04T01:12:50.154Z,99.90
2022-08-04T01:14:05.034Z,99.90
2022-08-04T01:15:10.444Z,99.90
2022-08-04T01:16:18.806Z,99.90
2022-08-04T01:17:25.914Z,99.90
2022-08-04T01:18:36.969Z,99.90
2022-08-04T01:19:54.304Z,99.90
2022-08-04T01:21:34.061Z,99.90
2022-08-04T01:23:16.545Z,99.90
2022-08-04T01:24:38.970Z,99.90
2022-08-04T01:26:44.162Z,99.90
2022-08-04T01:28:07.870Z,99.90
2022-08-04T01:29:15.042Z,99.90
2022-08-04T01:30:19.621Z,99.90
2022-08-04T01:31:42.366Z,99.90
2022-08-04T01:32:53.169Z,99.90
2022-08-04T01:34:04.150Z,99.90
2022-08-04T01:35:47.517Z,99.90
2022-08-04T01:36:57.185Z,99.90
2022-08-04T01:38:20.158Z,99.90
2022-08-04T01:39:41.962Z,99.90
2022-08-04T01:40:46.377Z,99.90
2022-08-04T01:41:57.799Z,99.90
2022-08-04T01:43:02.900Z,99.90
2022-08-04T01:44:05.901Z,99.90
2022-08-04T01:45:12.242Z,99.90
2022-08-04T01:46:16.144Z,99.90
2022-08-04T01:47:22.373Z,99.90
2022-08-04T01:48:26.031Z,99.90
2022-08-04T01:49:32.112Z,99.90
2022-08-04T01:50:45.814Z,99.90
2022-08-04T01:51:56.909Z,99.90
2022-08-04T01:53:00.193Z,99.90
2022-08-04T01:54:02.436Z,99.90
2022-08-04T01:55:09.372Z,99.90
2022-08-04T01:56:12.634Z,99.90
2022-08-04T01:57:37.627Z,99.90
2022-08-04T01:58:42.709Z,99.90
2022-08-04T01:59:47.827Z,99.90
2022-08-04T02:00:58.642Z,99.90
2022-08-04T02:02:00.741Z,99.90
2022-08-04T02:03:03.850Z,99.90
2022-08-04T02:04:18.145Z,99.90
2022-08-04T02:06:02.413Z,99.90
2022-08-04T02:07:00.913Z,99.90
2022-08-04T02:08:12.369Z,99.90
2022-08-04T02:09:22.006Z,99.90
2022-08-04T02:10:30.213Z,99.90
2022-08-04T02:11:32.377Z,99.90
2022-08-04T02:12:53.926Z,99.90
2022-08-04T02:14:02.582Z,99.90
2022-08-04T02:15:14.907Z,99.90
2022-08-04T02:16:30.095Z,99.90
2022-08-04T02:17:37.822Z,99.90
2022-08-04T02:18:49.340Z,99.90
2022-08-04T02:20:09.074Z,99.90
2022-08-04T02:21:13.262Z,99.90
2022-08-04T02:22:17.916Z,99.90
2022-08-04T02:23:29.611Z,99.90
2022-08-04T02:24:32.794Z,99.90
2022-08-04T02:25:46.142Z,99.90
2022-08-04T02:26:52.323Z,99.90
2022-08-04T02:28:14.189Z,99.90
2022-08-04T02:29:20.050Z,99.90
2022-08-04T02:30:27.565Z,99.90
2022-08-04T02:31:34.502Z,99.90
2022-08-04T02:32:39.742Z,99.90
2022-08-04T02:33:45.424Z,99.90
2022-08-04T02:34:54.675Z,99.90
2022-08-04T02:36:02.594Z,99.90
2022-08-04T02:37:06.445Z,99.90
2022-08-04T02:38:33.890Z,99.90
2022-08-04T02:39:41.490Z,99.90
2022-08-04T02:40:54.041Z,99.90
2022-08-04T02:42:00.996Z,99.90
2022-08-04T02:43:05.130Z,99.90
2022-08-04T02:44:11.356Z,99.90
2022-08-04T02:45:15.073Z,99.90
2022-08-04T02:46:19.763Z,99.90
2022-08-04T02:48:29.683Z,99.90
2022-08-04T02:48:51.445Z,99.90
2022-08-04T02:49:54.070Z,99.90
2022-08-04T02:51:02.131Z,99.90
2022-08-04T02:52:08.343Z,99.90
2022-08-04T02:53:15.451Z,99.90
2022-08-04T02:54:33.690Z,99.90
2022-08-04T02:55:36.442Z,99.90
2022-08-04T02:56:41.858Z,99.90
2022-08-04T02:57:47.382Z,99.90
2022-08-04T02:58:54.313Z,99.90
2022-08-04T03:00:08.490Z,99.90
2022-08-04T03:01:11.520Z,99.90
2022-08-04T03:02:14.234Z,99.90
2022-08-04T03:03:25.570Z,99.90
2022-08-04T03:04:50.563Z,99.90
2022-08-04T03:06:22.753Z,99.90
2022-08-04T03:07:52.228Z,99.90
2022-08-04T03:09:35.318Z,99.90
2022-08-04T03:11:06.721Z,99.90
2022-08-04T03:12:33.176Z,99.90
2022-08-04T03:14:23.487Z,99.90
2022-08-04T03:15:43.046Z,99.90
2022-08-04T03:17:35.128Z,99.90
2022-08-04T03:19:05.007Z,99.90
2022-08-04T03:20:37.762Z,99.90
2022-08-04T03:22:22.389Z,99.90
2022-08-04T03:24:00.758Z,99.90
2022-08-04T03:25:25.681Z,99.90
2022-08-04T03:26:52.320Z,99.90
2022-08-04T03:28:36.996Z,99.90
2022-08-04T03:30:06.311Z,99.90
2022-08-04T03:31:34.620Z,99.90
2022-08-04T03:33:15.718Z,99.90
2022-08-04T03:34:33.358Z,99.90
2022-08-04T03:36:28.508Z,99.90
2022-08-04T03:38:00.366Z,99.90
2022-08-04T03:39:48.285Z,99.90
2022-08-04T03:41:17.118Z,99.90
2022-08-04T03:43:57.785Z,99.90
2022-08-04T03:45:24.012Z,99.90
2022-08-04T03:46:51.090Z,99.90
2022-08-04T03:48:24.017Z,99.90
2022-08-04T03:50:05.657Z,99.90
2022-08-04T03:51:48.378Z,99.90
2022-08-04T03:53:09.023Z,99.90
2022-08-04T03:54:47.544Z,99.90
2022-08-04T03:56:27.065Z,99.90
2022-08-04T03:57:51.362Z,99.90
2022-08-04T03:59:10.763Z,99.90
2022-08-04T04:00:15.466Z,99.90
2022-08-04T04:02:02.193Z,99.90
2022-08-04T04:03:38.577Z,99.90
2022-08-04T04:05:10.330Z,99.90
2022-08-04T04:06:54.070Z,99.90
2022-08-04T04:08:29.374Z,99.90
2022-08-04T04:10:16.207Z,99.90
2022-08-04T04:11:54.258Z,99.90
2022-08-04T04:13:50.940Z,99.90
2022-08-04T04:15:15.611Z,99.90
2022-08-04T04:16:50.634Z,99.90
2022-08-04T04:18:15.909Z,99.90
2022-08-04T04:19:32.219Z,99.90
2022-08-04T04:20:59.236Z,99.90
2022-08-04T04:22:16.750Z,99.90
2022-08-04T04:23:31.833Z,99.90
2022-08-04T04:24:46.450Z,99.90
2022-08-04T04:26:03.974Z,99.90
2022-08-04T04:27:19.075Z,99.90
2022-08-04T04:28:51.433Z,99.90
2022-08-04T04:30:14.223Z,99.90
2022-08-04T04:31:39.114Z,99.90
2022-08-04T04:33:00.903Z,99.90
2022-08-04T04:34:12.151Z,99.90
2022-08-04T04:35:27.532Z,99.90
2022-08-04T04:36:38.484Z,99.90
2022-08-04T04:38:08.022Z,99.90
2022-08-04T04:39:21.516Z,99.90
2022-08-04T04:40:34.770Z,99.90
2022-08-04T04:41:53.027Z,99.90
2022-08-04T04:43:11.420Z,99.90
2022-08-04T04:44:42.633Z,99.90
2022-08-04T04:45:54.946Z,99.90
2022-08-04T04:47:07.482Z,99.90
2022-08-04T04:48:18.770Z,99.90
2022-08-04T04:49:29.298Z,99.90
2022-08-04T04:50:48.144Z,99.90
2022-08-04T04:52:01.305Z,99.90
2022-08-04T04:53:11.146Z,99.90
2022-08-04T04:54:25.670Z,99.90
2022-08-04T04:55:31.320Z,99.90
2022-08-04T04:56:41.582Z,99.90
2022-08-04T04:57:54.524Z,99.90
2022-08-04T04:58:59.641Z,99.90
2022-08-04T05:00:07.757Z,99.90
2022-08-04T05:01:35.481Z,99.90
2022-08-04T05:03:00.661Z,99.90
2022-08-04T05:04:37.978Z,99.90
2022-08-04T05:06:09.364Z,99.90
2022-08-04T05:07:43.558Z,99.90
2022-08-04T05:09:05.016Z,99.90
2022-08-04T05:10:20.899Z,99.90
2022-08-04T05:11:55.156Z,99.90
2022-08-04T05:14:34.480Z,99.90
2022-08-04T05:14:41.568Z,99.90
2022-08-04T05:15:46.606Z,99.90
2022-08-04T05:16:58.665Z,99.90
2022-08-04T05:18:03.358Z,99.90
2022-08-04T05:19:14.897Z,99.90
2022-08-04T05:20:23.067Z,99.90
2022-08-04T05:21:38.603Z,99.90
2022-08-04T05:22:50.605Z,99.90
2022-08-04T05:23:59.567Z,99.90
2022-08-04T05:25:07.183Z,99.90
2022-08-04T05:26:14.594Z,99.90
2022-08-04T05:27:23.450Z,99.90
2022-08-04T05:28:29.218Z,99.90
2022-08-04T05:29:37.103Z,99.90
2022-08-04T05:30:48.480Z,99.90
2022-08-04T05:31:55.426Z,99.90
2022-08-04T05:33:03.463Z,99.90
2022-08-04T05:34:10.462Z,99.90
2022-08-04T05:35:16.817Z,99.90
2022-08-04T05:36:42.905Z,99.90
2022-08-04T05:37:48.404Z,99.90
2022-08-04T05:39:07.072Z,99.90
2022-08-04T05:40:12.614Z,99.90
2022-08-04T05:41:14.986Z,99.90
2022-08-04T05:42:18.157Z,99.90
2022-08-04T05:43:21.460Z,99.90
2022-08-04T05:44:26.050Z,99.90
2022-08-04T05:45:29.478Z,99.90
2022-08-04T05:46:44.062Z,99.90
2022-08-04T05:47:49.003Z,99.90
2022-08-04T05:48:53.566Z,99.90
2022-08-04T05:50:01.443Z,99.90
2022-08-04T05:51:06.518Z,99.90
2022-08-04T05:52:11.073Z,99.90
2022-08-04T05:53:17.910Z,99.90
2022-08-04T05:54:22.160Z,99.90
2022-08-04T05:55:48.937Z,99.90
2022-08-04T05:56:50.871Z,99.90
2022-08-04T05:57:55.777Z,99.90
2022-08-04T05:59:00.166Z,99.90
2022-08-04T06:00:19.743Z,99.90
2022-08-04T06:01:30.647Z,99.90
2022-08-04T06:02:34.810Z,99.90
2022-08-04T06:03:39.706Z,99.90
2022-08-04T06:04:45.216Z,99.90
2022-08-04T06:05:50.166Z,99.90
2022-08-04T06:06:53.164Z,99.90
2022-08-04T06:08:12.074Z,99.90
2022-08-04T06:09:16.637Z,99.90
2022-08-04T06:10:23.143Z,99.90
2022-08-04T06:11:33.029Z,99.90
2022-08-04T06:13:02.469Z,99.90
2022-08-04T06:14:08.732Z,99.90
2022-08-04T06:15:14.975Z,99.90
2022-08-04T06:16:29.938Z,99.90
2022-08-04T06:18:35.552Z,99.90
2022-08-04T06:20:02.596Z,99.90
2022-08-04T06:20:32.846Z,99.90
2022-08-04T06:21:40.169Z,99.90
2022-08-04T06:22:45.602Z,99.90
2022-08-04T06:23:53.222Z,99.90
2022-08-04T06:25:03.482Z,99.90
2022-08-04T06:26:07.225Z,99.90
2022-08-04T06:27:11.241Z,99.90
2022-08-04T06:28:15.302Z,99.90
2022-08-04T06:29:25.442Z,99.90
2022-08-04T06:30:32.404Z,99.90
2022-08-04T06:32:28.203Z,99.90
2022-08-04T06:33:24.655Z,99.90
2022-08-04T06:34:27.641Z,99.90
2022-08-04T06:35:32.310Z,99.90
2022-08-04T06:36:37.949Z,99.90
2022-08-04T06:37:44.199Z,99.90
2022-08-04T06:38:46.916Z,99.90
2022-08-04T06:40:16.763Z,99.90
2022-08-04T06:41:26.438Z,99.90
2022-08-04T06:42:30.317Z,99.90
2022-08-04T06:43:33.007Z,99.90
2022-08-04T06:44:50.146Z,99.90
2022-08-04T06:45:55.786Z,99.90
2022-08-04T06:46:58.855Z,99.90
2022-08-04T06:48:02.886Z,99.90
2022-08-04T06:49:05.818Z,99.90
2022-08-04T06:51:26.829Z,99.90
2022-08-04T06:51:46.729Z,99.90
2022-08-04T06:52:50.790Z,99.90
2022-08-04T06:53:54.062Z,99.90
2022-08-04T06:54:56.081Z,99.90
2022-08-04T06:56:02.227Z,99.90
2022-08-04T06:57:04.823Z,99.90
2022-08-04T06:58:10.056Z,99.90
2022-08-04T06:59:15.186Z,99.90
2022-08-04T07:00:19.253Z,99.90
2022-08-04T07:01:23.992Z,99.90
2022-08-04T07:02:27.786Z,99.90
2022-08-04T07:03:32.060Z,99.90
2022-08-04T07:04:34.844Z,99.90
2022-08-04T07:05:38.041Z,99.90
2022-08-04T07:06:41.167Z,99.90
2022-08-04T07:07:58.091Z,99.90
2022-08-04T07:09:03.005Z,99.90
2022-08-04T07:10:07.557Z,99.90
2022-08-04T07:11:12.957Z,99.90
2022-08-04T07:12:16.118Z,99.90
2022-08-04T07:13:20.674Z,99.90
2022-08-04T07:14:25.837Z,99.90
2022-08-04T07:15:28.508Z,99.90
2022-08-04T07:16:33.092Z,99.90
2022-08-04T07:17:36.332Z,99.90
2022-08-04T07:18:39.316Z,99.90
2022-08-04T07:19:41.474Z,99.90
2022-08-04T07:20:45.513Z,99.90
2022-08-04T07:22:17.845Z,99.90
2022-08-04T07:23:12.942Z,99.90
2022-08-04T07:24:16.350Z,99.90
2022-08-04T07:25:19.945Z,99.90
2022-08-04T07:26:33.487Z,99.90
2022-08-04T07:27:47.899Z,99.90
2022-08-04T07:28:52.346Z,99.90
2022-08-04T07:29:54.978Z,99.90
2022-08-04T07:30:59.341Z,99.90
2022-08-04T07:32:04.601Z,99.90
2022-08-04T07:33:07.962Z,99.90
2022-08-04T07:34:20.602Z,99.90
2022-08-04T07:36:04.999Z,99.90
2022-08-04T07:36:50.817Z,99.90
2022-08-04T07:37:54.218Z,99.90
2022-08-04T07:38:56.240Z,99.90
2022-08-04T07:39:59.455Z,99.90
2022-08-04T07:41:03.854Z,99.90
2022-08-04T07:42:08.921Z,99.90
2022-08-04T07:43:12.165Z,99.90
2022-08-04T07:44:16.382Z,99.90
2022-08-04T07:45:20.736Z,99.90
2022-08-04T07:46:23.933Z,99.90
2022-08-04T07:47:27.516Z,99.90
2022-08-04T07:48:30.829Z,99.90
2022-08-04T07:49:55.672Z,99.90
2022-08-04T07:50:57.825Z,99.90
2022-08-04T07:52:00.587Z,99.90
2022-08-04T07:53:52.828Z,99.90
2022-08-04T07:54:27.594Z,99.90
2022-08-04T07:55:30.082Z,99.90
2022-08-04T07:56:34.080Z,99.90
2022-08-04T07:57:41.340Z,99.90
2022-08-04T07:58:44.507Z,99.90
2022-08-04T07:59:50.210Z,99.90
2022-08-04T08:00:52.975Z,99.90
2022-08-04T08:01:59.838Z,99.90
2022-08-04T08:03:03.683Z,99.90
2022-08-04T08:04:08.465Z,99.90
2022-08-04T08:05:15.038Z,99.90
2022-08-04T08:06:32.348Z,99.90
2022-08-04T08:07:37.197Z,99.90
2022-08-04T08:08:53.394Z,99.90
2022-08-04T08:09:56.495Z,99.90
2022-08-04T08:10:59.089Z,99.90
2022-08-04T08:12:36.577Z,99.90
2022-08-04T08:13:32.814Z,99.90
2022-08-04T08:14:36.246Z,99.90
2022-08-04T08:15:40.187Z,99.90
2022-08-04T08:16:43.694Z,99.90
2022-08-04T08:17:58.640Z,99.90
2022-08-04T08:19:03.622Z,99.90
2022-08-04T08:20:09.862Z,99.90
2022-08-04T08:21:12.997Z,99.90
2022-08-04T08:22:15.147Z,99.90
2022-08-04T08:23:18.175Z,99.90
2022-08-04T08:24:23.847Z,99.90
2022-08-04T08:25:26.903Z,99.90
2022-08-04T08:26:29.102Z,99.90
2022-08-04T08:27:33.242Z,99.90
2022-08-04T08:28:37.065Z,99.90
2022-08-04T08:29:41.146Z,99.90
2022-08-04T08:30:43.473Z,99.90
2022-08-04T08:31:57.302Z,99.90
2022-08-04T08:33:05.774Z,99.90
2022-08-04T08:34:09.846Z,99.90
2022-08-04T08:35:11.987Z,99.90
2022-08-04T08:36:20.616Z,99.90
2022-08-04T08:37:30.870Z,99.90
2022-08-04T08:38:49.068Z,99.90
2022-08-04T08:39:58.826Z,99.90
2022-08-04T08:41:19.049Z,99.90
2022-08-04T08:42:48.515Z,99.90
2022-08-04T08:44:19.169Z,99.90
2022-08-04T08:46:38.798Z,99.90
2022-08-04T08:48:06.853Z,99.90
2022-08-04T08:50:00.883Z,99.90
2022-08-04T08:51:32.482Z,99.90
2022-08-04T08:53:03.474Z,99.90
2022-08-04T08:54:36.265Z,99.90
2022-08-04T08:55:50.764Z,99.90
2022-08-04T08:57:00.400Z,99.90
2022-08-04T08:58:15.598Z,99.90
2022-08-04T08:59:38.119Z,99.90
2022-08-04T09:00:49.647Z,99.90
2022-08-04T09:02:06.830Z,99.90
2022-08-04T09:03:47.297Z,99.90
2022-08-04T09:05:03.194Z,99.90
2022-08-04T09:06:34.561Z,99.90
2022-08-04T09:08:02.576Z,99.90
2022-08-04T09:09:39.290Z,99.90
2022-08-04T09:10:47.701Z,99.90
2022-08-04T09:11:58.923Z,99.90
2022-08-04T09:13:07.327Z,99.90
2022-08-04T09:14:18.394Z,99.90
2022-08-04T09:15:29.827Z,99.90
2022-08-04T09:16:37.959Z,99.90
2022-08-04T09:17:46.638Z,99.90
2022-08-04T09:18:55.177Z,99.90
2022-08-04T09:20:02.517Z,99.90
2022-08-04T09:21:12.739Z,99.90
2022-08-04T09:22:20.778Z,99.90
2022-08-04T09:23:30.021Z,99.90
2022-08-04T09:24:43.981Z,99.90
2022-08-04T09:25:54.494Z,99.90
2022-08-04T09:27:02.794Z,99.90
2022-08-04T09:28:13.717Z,99.90
2022-08-04T09:29:21.050Z,99.90
2022-08-04T09:30:46.241Z,99.90
2022-08-04T09:32:07.090Z,99.90
2022-08-04T09:33:45.622Z,99.90
2022-08-04T09:35:13.345Z,99.90
2022-08-04T09:36:28.472Z,99.90
2022-08-04T09:37:46.146Z,99.90
2022-08-04T09:38:59.688Z,99.90
2022-08-04T09:40:08.758Z,99.90
2022-08-04T09:41:48.694Z,99.90
2022-08-04T09:43:03.861Z,99.90
2022-08-04T09:44:49.906Z,99.90
2022-08-04T09:45:51.611Z,99.90
2022-08-04T09:47:03.533Z,99.90
2022-08-04T09:48:11.079Z,99.90
2022-08-04T09:49:16.692Z,99.90
2022-08-04T09:50:33.466Z,99.90
2022-08-04T09:51:57.239Z,99.90
2022-08-04T09:53:31.721Z,99.90
2022-08-04T09:54:46.361Z,99.90
2022-08-04T09:56:02.654Z,99.90
2022-08-04T09:57:16.022Z,99.90
2022-08-04T09:58:28.203Z,99.90
2022-08-04T09:59:41.797Z,99.90
2022-08-04T10:00:51.371Z,99.90
2022-08-04T10:01:59.916Z,99.90
2022-08-04T10:03:03.904Z,99.90
2022-08-04T10:04:09.938Z,99.90
2022-08-04T10:05:17.355Z,99.90
2022-08-04T10:06:47.010Z,99.90
2022-08-04T10:08:16.566Z,99.90
2022-08-04T10:09:34.182Z,99.70
2022-08-04T10:10:42.090Z,99.40
2022-08-04T10:12:02.289Z,98.70
2022-08-04T10:13:18.464Z,98.10
2022-08-04T10:14:38.037Z,97.40
2022-08-04T10:15:53.296Z,96.20
2022-08-04T10:17:05.122Z,95.70
2022-08-04T10:18:18.361Z,96.20
2022-08-04T10:19:26.744Z,96.20
2022-08-04T10:20:50.861Z,96.20
2022-08-04T10:22:27.967Z,95.70
2022-08-04T10:23:56.469Z,95.30
2022-08-04T10:26:03.047Z,95.00
2022-08-04T10:26:40.962Z,94.20
2022-08-04T10:27:49.747Z,93.00
2022-08-04T10:28:55.714Z,92.40
2022-08-04T10:30:11.804Z,92.80
2022-08-04T10:31:23.898Z,92.80
2022-08-04T10:32:32.714Z,92.50
2022-08-04T10:33:42.871Z,92.80
2022-08-04T10:34:59.017Z,93.00
2022-08-04T10:36:04.554Z,93.60
2022-08-04T10:37:14.112Z,94.40
2022-08-04T10:38:26.879Z,95.30
2022-08-04T10:39:42.631Z,96.30
2022-08-04T10:40:49.826Z,97.00
2022-08-04T10:41:59.633Z,97.10
2022-08-04T10:43:22.327Z,97.60
2022-08-04T10:44:42.292Z,97.90
2022-08-04T10:45:48.474Z,98.70
2022-08-04T10:47:05.133Z,99.40
2022-08-04T10:48:15.967Z,99.90
2022-08-04T10:49:25.059Z,99.90
2022-08-04T10:50:28.516Z,99.90
2022-08-04T10:51:58.272Z,99.90
2022-08-04T10:53:09.529Z,99.90
2022-08-04T10:54:16.253Z,99.90
2022-08-04T10:55:22.705Z,99.90
2022-08-04T10:56:53.983Z,99.90
2022-08-04T10:58:03.166Z,99.90
2022-08-04T10:59:11.463Z,99.90
2022-08-04T11:00:19.808Z,99.90
2022-08-04T11:02:01.363Z,99.90
2022-08-04T11:02:58.363Z,99.90
2022-08-04T11:04:05.794Z,99.90
2022-08-04T11:05:19.213Z,99.90
2022-08-04T11:06:24.605Z,99.90
2022-08-04T11:07:30.535Z,98.60
2022-08-04T11:08:36.819Z,98.20
2022-08-04T11:09:42.875Z,99.10
2022-08-04T11:10:52.496Z,99.90
2022-08-04T11:12:01.827Z,99.90
2022-08-04T11:13:08.165Z,99.90
2022-08-04T11:14:38.877Z,99.90
2022-08-04T11:15:49.038Z,99.90
2022-08-04T11:16:56.898Z,99.90
2022-08-04T11:18:16.925Z,99.90
2022-08-04T11:19:42.731Z,99.90
2022-08-04T11:20:56.650Z,99.90
2022-08-04T11:22:03.977Z,99.90
2022-08-04T11:23:12.434Z,99.90
2022-08-04T11:24:26.315Z,99.90
2022-08-04T11:25:35.898Z,99.90
2022-08-04T11:26:46.695Z,99.90
2022-08-04T11:27:59.079Z,99.90
2022-08-04T11:29:10.383Z,99.90
2022-08-04T11:30:14.581Z,99.90
2022-08-04T11:31:23.839Z,99.90
2022-08-04T11:32:35.872Z,99.90
2022-08-04T11:33:47.434Z,99.90
2022-08-04T11:34:54.254Z,99.90
2022-08-04T11:36:02.789Z,99.90
2022-08-04T11:37:14.368Z,99.90
2022-08-04T11:38:23.815Z,99.90
2022-08-04T11:39:30.933Z,99.90
2022-08-04T11:40:42.627Z,99.90
2022-08-04T11:42:14.247Z,99.90
2022-08-04T11:44:02.361Z,99.90
2022-08-04T11:44:49.015Z,99.90
2022-08-04T11:45:55.202Z,99.90
2022-08-04T11:47:01.954Z,99.90
2022-08-04T11:48:11.061Z,99.90
2022-08-04T11:49:24.141Z,99.90
2022-08-04T11:50:31.180Z,99.90
2022-08-04T11:51:34.762Z,99.90
2022-08-04T11:52:42.797Z,99.90
2022-08-04T11:53:45.754Z,99.90
2022-08-04T11:54:52.463Z,99.90
2022-08-04T11:56:07.807Z,99.90
2022-08-04T11:57:13.086Z,99.90
2022-08-04T11:58:15.456Z,99.90
2022-08-04T11:59:19.621Z,99.90
2022-08-04T12:00:25.235Z,99.90
2022-08-04T12:01:36.874Z,99.90
2022-08-04T12:03:16.700Z,99.90
2022-08-04T12:04:37.782Z,99.90
2022-08-04T12:05:49.640Z,99.90
2022-08-04T12:07:15.224Z,99.90
2022-08-04T12:08:34.275Z,99.90
2022-08-04T12:09:45.382Z,99.90
2022-08-04T12:11:00.359Z,99.90
2022-08-04T12:12:10.635Z,99.90
2022-08-04T12:13:25.677Z,99.90
2022-08-04T12:14:39.688Z,99.00
2022-08-04T12:15:51.030Z,96.60
2022-08-04T12:16:59.783Z,95.30
2022-08-04T12:18:11.735Z,94.60
2022-08-04T12:19:20.614Z,93.90
2022-08-04T12:20:34.439Z,94.30
2022-08-04T12:21:53.374Z,95.00
2022-08-04T12:23:01.781Z,95.50
2022-08-04T12:24:16.885Z,96.40
2022-08-04T12:25:25.604Z,96.80
2022-08-04T12:26:32.017Z,97.20
2022-08-04T12:27:38.503Z,98.00
2022-08-04T12:29:08.950Z,98.50
2022-08-04T12:30:57.502Z,99.90
2022-08-04T12:31:37.759Z,99.90
2022-08-04T12:32:48.313Z,99.90
2022-08-04T12:34:05.014Z,99.90
2022-08-04T12:35:20.419Z,99.90
2022-08-04T12:36:32.627Z,99.90
2022-08-04T12:37:44.911Z,99.90
2022-08-04T12:38:52.669Z,99.90
2022-08-04T12:40:27.310Z,99.90
2022-08-04T12:41:27.170Z,99.90
2022-08-04T12:42:41.940Z,99.90
2022-08-04T12:44:06.987Z,99.90
2022-08-04T12:45:15.695Z,99.90
2022-08-04T12:46:22.937Z,99.90
2022-08-04T12:47:29.531Z,99.90
2022-08-04T12:48:33.429Z,99.90
2022-08-04T12:49:40.401Z,99.90
2022-08-04T12:50:48.098Z,99.90
2022-08-04T12:52:08.654Z,99.90
2022-08-04T12:53:19.522Z,99.90
2022-08-04T12:54:37.199Z,99.90
2022-08-04T12:55:45.939Z,99.90
2022-08-04T12:57:07.011Z,99.90
2022-08-04T12:58:16.040Z,99.90
2022-08-04T12:59:40.247Z,99.90
2022-08-04T13:00:44.935Z,99.90
2022-08-04T13:02:09.747Z,99.90
2022-08-04T13:03:15.727Z,99.90
2022-08-04T13:04:21.615Z,99.90
2022-08-04T13:05:29.158Z,99.90
2022-08-04T13:06:34.914Z,99.90
2022-08-04T13:07:44.044Z,99.70
2022-08-04T13:08:48.781Z,99.90
2022-08-04T13:09:53.277Z,99.90
2022-08-04T13:10:59.881Z,99.90
2022-08-04T13:12:12.545Z,99.90
2022-08-04T13:13:17.713Z,99.90
2022-08-04T13:14:27.451Z,99.90
2022-08-04T13:15:33.519Z,99.90
2022-08-04T13:16:57.503Z,99.90
2022-08-04T13:18:02.959Z,99.90
2022-08-04T13:19:09.710Z,99.90
2022-08-04T13:20:14.092Z,99.90
2022-08-04T13:21:22.855Z,99.90
2022-08-04T13:22:27.179Z,99.90
2022-08-04T13:23:31.606Z,99.10
2022-08-04T13:26:41.690Z,99.60
2022-08-04T13:27:48.620Z,99.30
2022-08-04T13:28:53.494Z,99.20
2022-08-04T13:30:03.971Z,99.00
2022-08-04T13:30:25.433Z,99.90
2022-08-04T13:31:09.262Z,99.50
2022-08-04T13:32:16.321Z,99.90
2022-08-04T13:33:20.929Z,99.90
2022-08-04T13:34:23.602Z,99.90
2022-08-04T13:35:54.183Z,99.90
2022-08-04T13:36:56.055Z,99.90
2022-08-04T13:37:59.420Z,99.90
2022-08-04T13:39:08.622Z,99.90
2022-08-04T13:40:15.485Z,99.90
2022-08-04T13:41:19.865Z,99.90
2022-08-04T13:42:24.114Z,99.90
2022-08-04T13:44:15.888Z,99.90
2022-08-04T13:44:56.189Z,99.90
2022-08-04T13:46:05.120Z,99.90
2022-08-04T13:47:14.545Z,99.90
2022-08-04T13:48:31.895Z,99.90
2022-08-04T13:49:48.645Z,99.90
2022-08-04T13:51:05.003Z,99.90
2022-08-04T13:52:10.473Z,99.90
2022-08-04T13:53:18.730Z,99.90
2022-08-04T13:54:30.518Z,99.90
2022-08-04T13:55:36.086Z,99.90
2022-08-04T13:56:42.253Z,99.90
2022-08-04T13:57:48.109Z,99.90
2022-08-04T13:58:55.094Z,99.90
2022-08-04T14:00:02.679Z,99.90
2022-08-04T14:01:11.920Z,99.90
2022-08-04T14:02:26.325Z,99.90
2022-08-04T14:03:53.365Z,99.90
2022-08-04T14:05:03.005Z,99.90
2022-08-04T14:06:15.901Z,99.90
2022-08-04T14:07:20.920Z,99.90
2022-08-04T14:08:31.578Z,99.90
2022-08-04T14:09:39.133Z,99.90
2022-08-04T14:10:41.745Z,99.90
2022-08-04T14:12:10.974Z,99.90
2022-08-04T14:13:09.484Z,99.90
2022-08-04T14:14:20.391Z,99.90
2022-08-04T14:16:01.282Z,99.90
2022-08-04T14:17:03.682Z,99.90
2022-08-04T14:18:20.954Z,99.90
2022-08-04T14:19:27.942Z,99.90
2022-08-04T14:20:33.693Z,99.90
2022-08-04T14:21:37.725Z,99.90
2022-08-04T14:22:40.027Z,99.90
2022-08-04T14:23:49.124Z,99.90
2022-08-04T14:24:57.901Z,99.90
2022-08-04T14:26:01.191Z,99.90
2022-08-04T14:27:03.273Z,99.90
2022-08-04T14:28:06.320Z,99.90
2022-08-04T14:29:28.393Z,99.90
2022-08-04T14:30:35.352Z,99.90
2022-08-04T14:31:46.674Z,99.90
2022-08-04T14:34:01.314Z,99.90
2022-08-04T14:34:27.900Z,99.90
2022-08-04T14:35:38.377Z,99.90
2022-08-04T14:37:16.367Z,99.90
2022-08-04T14:38:18.259Z,99.90
2022-08-04T14:39:38.171Z,99.90
2022-08-04T14:40:44.019Z,99.90
2022-08-04T14:41:48.600Z,99.90
2022-08-04T14:42:54.800Z,99.90
2022-08-04T14:44:00.636Z,99.90
2022-08-04T14:45:05.369Z,99.90
2022-08-04T14:46:08.509Z,99.90
2022-08-04T14:47:13.244Z,99.90
2022-08-04T14:48:17.764Z,99.90
2022-08-04T14:49:21.232Z,99.90
2022-08-04T14:50:34.761Z,99.90
2022-08-04T14:51:41.769Z,99.90
2022-08-04T14:52:43.801Z,99.90
2022-08-04T14:53:50.411Z,99.90
2022-08-04T14:54:53.918Z,99.90
2022-08-04T14:56:00.013Z,99.90
2022-08-04T14:57:05.448Z,99.90
2022-08-04T14:58:36.283Z,99.90
2022-08-04T14:59:59.007Z,99.90
2022-08-04T15:01:10.630Z,99.90
2022-08-04T15:02:15.331Z,99.90
2022-08-04T15:03:19.975Z,99.90
2022-08-04T15:04:25.821Z,99.90
2022-08-04T15:06:02.472Z,99.90
2022-08-04T15:06:53.706Z,99.90
2022-08-04T15:07:55.831Z,99.90
2022-08-04T15:09:00.384Z,99.90
2022-08-04T15:10:02.971Z,99.90
2022-08-04T15:11:07.346Z,99.90
2022-08-04T15:12:12.011Z,99.90
2022-08-04T15:13:14.442Z,99.90
2022-08-04T15:14:37.425Z,99.90
2022-08-04T15:15:40.336Z,99.90
2022-08-04T15:16:54.267Z,99.90
2022-08-04T15:17:57.114Z,99.90
2022-08-04T15:19:01.138Z,99.90
2022-08-04T15:20:03.449Z,99.90
2022-08-04T15:21:07.450Z,99.90
2022-08-04T15:22:17.472Z,99.90
2022-08-04T15:23:20.948Z,99.90
2022-08-04T15:24:24.046Z,99.90
2022-08-04T15:25:26.918Z,99.90
2022-08-04T15:26:34.813Z,99.90
2022-08-04T15:27:40.094Z,99.90
2022-08-04T15:28:48.419Z,99.90
2022-08-04T15:29:59.204Z,99.90
2022-08-04T15:31:10.485Z,99.90
2022-08-04T15:32:30.834Z,99.90
2022-08-04T15:33:34.259Z,99.90
2022-08-04T15:34:48.294Z,99.90
2022-08-04T15:35:55.138Z,99.90
2022-08-04T15:37:01.668Z,99.90
2022-08-04T15:38:10.730Z,99.90
2022-08-04T15:39:21.763Z,99.90